createdAt,value
2022-12-17T00:15:54.121Z,79.91
2022-12-17T00:18:42.567Z,79.56
2022-12-17T00:21:28.773Z,80.24
2022-12-17T00:28:00.111Z,80.32
2022-12-17T00:30:45.434Z,79.03
2022-12-17T00:33:31.495Z,78.46
2022-12-17T00:36:16.803Z,80.29
2022-12-17T00:39:03.710Z,81.80
2022-12-17T00:41:49.376Z,81.99
2022-12-17T00:44:34.238Z,82.26
2022-12-17T00:47:19.277Z,81.99
2022-12-17T00:50:04.173Z,81.00
2022-12-17T00:52:49.667Z,79.27
2022-12-17T00:55:35.050Z,78.12
2022-12-17T00:58:20.481Z,77.11
2022-12-17T01:01:05.761Z,76.57
2022-12-17T01:03:51.030Z,75.70
2022-12-17T01:10:47.909Z,75.48
2022-12-17T01:13:34.766Z,74.94
2022-12-17T01:16:29.693Z,74.54
2022-12-17T01:19:16.043Z,75.63
2022-12-17T01:22:01.508Z,76.51
2022-12-17T01:24:46.956Z,76.07
2022-12-17T01:27:53.846Z,77.19
2022-12-17T01:30:41.576Z,76.05
2022-12-17T01:33:28.487Z,76.38
2022-12-17T01:43:00.875Z,75.44
2022-12-17T01:45:50.231Z,76.32
2022-12-17T01:48:36.380Z,76.98
2022-12-17T01:51:22.395Z,77.49
2022-12-17T01:54:10.289Z,77.17
2022-12-17T01:56:59.718Z,76.51
2022-12-17T01:59:57.586Z,75.88
2022-12-17T02:02:43.106Z,76.59
2022-12-17T02:05:28.444Z,76.92
2022-12-17T02:08:25.638Z,77.36
2022-12-17T02:11:22.186Z,77.98
2022-12-17T02:14:48.940Z,79.46
2022-12-17T02:17:39.969Z,80.04
2022-12-17T02:20:47.997Z,80.94
2022-12-17T02:23:57.945Z,80.62
2022-12-17T02:26:49.169Z,79.58
2022-12-17T02:29:35.537Z,79.47
2022-12-17T02:32:22.394Z,79.83
2022-12-17T02:35:07.776Z,79.67
2022-12-17T02:37:52.616Z,78.74
2022-12-17T02:43:13.517Z,77.77
2022-12-17T02:45:59.009Z,77.42
2022-12-17T02:48:56.358Z,77.48
2022-12-17T02:51:43.339Z,77.43
2022-12-17T02:54:28.749Z,75.65
2022-12-17T02:58:09.335Z,75.83
2022-12-17T03:01:16.304Z,75.95
2022-12-17T03:04:01.679Z,76.13
2022-12-17T03:06:48.123Z,77.17
2022-12-17T03:09:33.194Z,77.46
2022-12-17T03:12:18.148Z,76.74
2022-12-17T03:17:38.835Z,77.41
2022-12-17T03:20:24.826Z,77.41
2022-12-17T03:23:09.961Z,77.10
2022-12-17T03:25:55.154Z,78.05
2022-12-17T03:28:40.526Z,76.19
2022-12-17T03:35:16.223Z,75.21
2022-12-17T03:38:02.480Z,77.08
2022-12-17T03:40:47.451Z,75.70
2022-12-17T03:43:33.136Z,75.65
2022-12-17T03:46:18.645Z,75.10
2022-12-17T03:49:03.855Z,75.90
2022-12-17T03:52:08.776Z,75.51
2022-12-17T03:54:54.133Z,75.30
2022-12-17T03:57:39.750Z,75.12
2022-12-17T04:04:33.761Z,74.43
2022-12-17T04:07:19.387Z,75.17
2022-12-17T04:10:04.688Z,74.92
2022-12-17T04:12:49.783Z,76.45
2022-12-17T04:15:35.277Z,75.79
2022-12-17T04:18:20.279Z,75.50
2022-12-17T04:21:05.827Z,76.05
2022-12-17T04:23:50.791Z,77.51
2022-12-17T04:26:36.199Z,76.69
2022-12-17T04:29:20.967Z,76.46
2022-12-17T04:32:06.406Z,76.58
2022-12-17T04:34:51.349Z,76.77
2022-12-17T04:37:36.843Z,76.20
2022-12-17T04:40:22.325Z,75.92
2022-12-17T04:43:07.213Z,75.61
2022-12-17T04:45:52.244Z,74.37
2022-12-17T04:48:37.713Z,73.92
2022-12-17T04:51:23.185Z,74.80
2022-12-17T04:54:08.631Z,76.14
2022-12-17T04:56:53.517Z,75.93
2022-12-17T05:06:42.377Z,75.45
2022-12-17T05:09:27.552Z,74.74
2022-12-17T05:12:12.902Z,73.98
2022-12-17T05:14:57.976Z,73.91
2022-12-17T05:17:42.913Z,74.32
2022-12-17T05:20:28.455Z,73.77
2022-12-17T05:23:13.816Z,73.56
2022-12-17T05:25:58.741Z,73.64
2022-12-17T05:28:44.128Z,74.83
2022-12-17T05:31:29.269Z,74.28
2022-12-17T05:34:23.892Z,73.03
2022-12-17T05:41:05.317Z,72.06
2022-12-17T05:43:50.246Z,71.06
2022-12-17T05:46:35.413Z,72.36
2022-12-17T05:49:20.487Z,71.35
2022-12-17T05:52:05.845Z,70.17
2022-12-17T05:54:51.594Z,70.92
2022-12-17T05:57:36.858Z,69.87
2022-12-17T06:00:22.384Z,69.99
2022-12-17T06:03:07.136Z,71.18
2022-12-17T06:05:52.390Z,70.21
2022-12-17T06:11:36.731Z,70.83
2022-12-17T06:14:22.452Z,71.50
2022-12-17T06:17:07.648Z,70.16
2022-12-17T06:23:33.420Z,70.03
2022-12-17T06:26:19.823Z,71.27
2022-12-17T06:29:05.121Z,71.37
2022-12-17T06:31:50.182Z,71.19
2022-12-17T06:34:35.608Z,71.02
2022-12-17T06:37:20.773Z,71.91
2022-12-17T06:40:05.592Z,70.51
2022-12-17T06:42:50.556Z,70.75
2022-12-17T06:45:35.513Z,72.04
2022-12-17T06:48:22.425Z,73.86
2022-12-17T06:51:08.010Z,72.43
2022-12-17T06:53:53.384Z,71.19
2022-12-17T06:56:38.447Z,72.41
2022-12-17T06:59:23.293Z,70.21
2022-12-17T07:02:08.838Z,72.51
2022-12-17T07:10:08.051Z,71.61
2022-12-17T07:12:57.495Z,70.30
2022-12-17T07:15:42.671Z,71.49
2022-12-17T07:18:27.933Z,71.45
2022-12-17T07:21:13.429Z,71.75
2022-12-17T07:24:25.167Z,70.60
2022-12-17T07:30:09.789Z,70.35
2022-12-17T07:32:54.745Z,69.43
2022-12-17T07:35:40.219Z,68.69
2022-12-17T07:38:25.622Z,69.97
2022-12-17T07:41:11.102Z,67.75
2022-12-17T07:43:56.018Z,66.71
2022-12-17T07:46:41.349Z,66.43
2022-12-17T07:49:26.850Z,65.97
2022-12-17T07:52:12.198Z,66.09
2022-12-17T07:54:57.733Z,65.51
2022-12-17T07:57:43.168Z,65.45
2022-12-17T08:00:29.025Z,65.42
2022-12-17T08:03:26.144Z,66.15
2022-12-17T08:06:11.417Z,66.60
2022-12-17T08:08:58.397Z,65.08
2022-12-17T08:11:43.258Z,66.25
2022-12-17T08:14:28.322Z,65.84
2022-12-17T08:17:13.250Z,64.05
2022-12-17T08:19:58.267Z,65.68
2022-12-17T08:22:43.229Z,65.37
2022-12-17T08:25:28.323Z,64.40
2022-12-17T08:28:49.076Z,65.70
2022-12-17T08:31:23.835Z,65.97
2022-12-17T08:34:08.712Z,64.60
2022-12-17T08:36:53.900Z,64.12
2022-12-17T08:39:38.642Z,62.89
2022-12-17T08:42:23.750Z,64.41
2022-12-17T08:45:09.450Z,65.17
2022-12-17T08:47:57.925Z,65.17
2022-12-17T08:50:45.689Z,65.02
2022-12-17T08:53:34.709Z,65.97
2022-12-17T08:56:20.114Z,63.93
2022-12-17T08:59:05.180Z,63.21
2022-12-17T09:01:50.355Z,62.74
2022-12-17T09:04:40.015Z,63.46
2022-12-17T09:07:25.330Z,63.33
2022-12-17T09:10:20.106Z,63.40
2022-12-17T09:13:08.077Z,63.68
2022-12-17T09:15:53.147Z,62.50
2022-12-17T09:18:40.177Z,62.83
2022-12-17T09:21:26.585Z,64.38
2022-12-17T09:24:12.153Z,63.41
2022-12-17T09:26:57.089Z,62.46
2022-12-17T09:29:42.543Z,63.42
2022-12-17T09:32:27.912Z,61.33
2022-12-17T09:35:13.008Z,63.52
2022-12-17T09:37:58.366Z,63.53
2022-12-17T09:40:43.824Z,66.37
2022-12-17T09:44:06.530Z,63.30
2022-12-17T09:47:03.634Z,62.52
2022-12-17T09:49:48.538Z,64.32
2022-12-17T09:52:40.576Z,61.32
2022-12-17T09:55:52.428Z,61.64
2022-12-17T09:58:41.276Z,62.24
2022-12-17T10:01:35.540Z,63.66
2022-12-17T10:04:23.891Z,64.39
2022-12-17T10:07:09.459Z,61.47
2022-12-17T10:09:55.487Z,61.54
2022-12-17T10:12:42.438Z,61.55
2022-12-17T10:15:33.743Z,62.57
2022-12-17T10:18:27.938Z,63.23
2022-12-17T10:21:30.388Z,63.76
2022-12-17T10:24:27.078Z,63.44
2022-12-17T10:27:12.613Z,62.84
2022-12-17T10:30:00.532Z,61.86
2022-12-17T10:32:46.417Z,61.31
2022-12-17T10:35:44.104Z,62.23
2022-12-17T10:38:41.720Z,62.47
2022-12-17T10:41:44.885Z,63.49
2022-12-17T10:44:46.751Z,63.46
2022-12-17T10:47:36.847Z,61.76
2022-12-17T10:50:35.490Z,62.15
2022-12-17T10:53:21.991Z,62.28
2022-12-17T10:56:15.651Z,62.81
2022-12-17T10:59:25.122Z,61.72
2022-12-17T11:02:17.096Z,63.63
2022-12-17T11:05:10.943Z,61.62
2022-12-17T11:08:01.604Z,60.85
2022-12-17T11:10:50.732Z,61.98
2022-12-17T11:13:49.493Z,62.79
2022-12-17T11:17:01.569Z,62.75
2022-12-17T11:20:13.628Z,63.72
2022-12-17T11:23:10.076Z,63.83
2022-12-17T11:25:58.220Z,60.89
2022-12-17T11:28:46.555Z,60.03
2022-12-17T11:31:31.785Z,60.46
2022-12-17T11:34:29.059Z,60.33
2022-12-17T11:37:44.128Z,59.88
2022-12-17T11:40:46.181Z,58.47
2022-12-17T11:43:41.148Z,60.34
2022-12-17T11:46:52.493Z,59.96
2022-12-17T11:50:05.099Z,60.46
2022-12-17T11:53:02.391Z,62.44
2022-12-17T11:56:15.659Z,63.02
2022-12-17T11:59:09.136Z,63.98
2022-12-17T12:02:08.611Z,64.06
2022-12-17T12:05:41.740Z,64.41
2022-12-17T12:08:47.167Z,62.09
2022-12-17T12:12:03.554Z,60.55
2022-12-17T12:15:12.116Z,61.79
2022-12-17T12:18:00.427Z,61.90
2022-12-17T12:20:54.511Z,60.91
2022-12-17T12:24:10.103Z,61.27
2022-12-17T12:27:08.617Z,62.10
2022-12-17T12:30:03.869Z,62.23
2022-12-17T12:33:05.505Z,60.07
2022-12-17T12:35:55.343Z,61.16
2022-12-17T12:38:50.138Z,60.96
2022-12-17T12:41:58.580Z,60.99
2022-12-17T12:44:53.580Z,61.19
2022-12-17T12:47:55.497Z,61.89
2022-12-17T12:50:48.106Z,61.90
2022-12-17T12:53:33.770Z,61.49
2022-12-17T12:56:18.992Z,62.95
2022-12-17T13:01:57.044Z,62.56
2022-12-17T13:04:47.599Z,63.13
2022-12-17T13:07:56.592Z,63.60
2022-12-17T14:34:18.373Z,63.72
2022-12-17T14:36:46.419Z,63.68
2022-12-17T14:39:33.283Z,64.57
2022-12-17T14:42:29.753Z,64.10
2022-12-17T14:45:03.626Z,64.27
2022-12-17T14:55:54.874Z,65.26
2022-12-17T14:58:56.170Z,65.18
2022-12-17T15:04:25.080Z,64.68
2022-12-17T15:13:11.376Z,64.05
2022-12-17T15:15:37.944Z,65.19
2022-12-17T15:18:35.853Z,65.62
2022-12-17T15:21:03.390Z,65.69
2022-12-17T15:23:33.483Z,65.18
2022-12-17T15:26:00.114Z,66.52
2022-12-17T15:29:18.149Z,66.15
2022-12-17T15:32:05.075Z,66.09
2022-12-17T15:34:32.278Z,65.95
2022-12-17T15:37:01.877Z,65.33
2022-12-17T15:39:36.558Z,65.38
2022-12-17T15:42:45.523Z,64.30
2022-12-17T15:45:17.932Z,63.76
2022-12-17T15:53:19.028Z,63.78
2022-12-17T15:58:42.497Z,66.58
2022-12-17T16:23:15.952Z,66.38
2022-12-17T16:50:52.763Z,66.04
2022-12-17T16:53:21.187Z,66.57
2022-12-17T16:55:50.058Z,68.14
2022-12-17T16:58:17.916Z,68.11
2022-12-17T17:09:26.312Z,70.77
2022-12-17T17:33:10.635Z,68.82
2022-12-17T17:35:37.600Z,68.87
2022-12-17T17:38:04.489Z,69.67
2022-12-17T17:56:21.737Z,68.47
2022-12-17T17:58:51.458Z,69.21
2022-12-17T18:01:22.437Z,69.12
2022-12-17T18:03:49.331Z,68.29
2022-12-17T18:06:16.372Z,68.96
2022-12-17T18:08:43.460Z,69.43
2022-12-17T18:11:20.180Z,70.00
2022-12-17T18:13:56.847Z,69.96
2022-12-17T18:16:37.559Z,70.43
2022-12-17T18:19:07.321Z,70.02
2022-12-17T18:21:34.421Z,70.69
2022-12-17T18:24:05.084Z,69.67
2022-12-17T18:26:45.262Z,69.81
2022-12-17T18:29:15.188Z,69.44
2022-12-17T18:31:44.797Z,69.69
2022-12-17T18:34:16.296Z,70.17
2022-12-17T18:36:45.913Z,69.90
2022-12-17T18:39:24.075Z,69.79
2022-12-17T18:42:10.919Z,69.78
2022-12-17T18:52:36.502Z,69.94
2022-12-17T18:57:44.519Z,70.50
2022-12-17T19:00:35.268Z,70.18
2022-12-17T19:03:04.413Z,69.70
2022-12-17T19:05:34.840Z,69.99
2022-12-17T19:08:01.421Z,70.13
2022-12-17T19:10:27.992Z,69.90
2022-12-17T19:12:55.204Z,69.96
2022-12-17T19:15:22.569Z,69.44
2022-12-17T19:17:50.933Z,69.22
2022-12-17T19:20:39.397Z,68.59
2022-12-17T19:23:05.984Z,68.40
2022-12-17T19:25:32.626Z,68.41
2022-12-17T19:27:59.215Z,67.79
2022-12-17T19:30:25.796Z,67.44
2022-12-17T19:32:52.404Z,68.10
2022-12-17T19:35:21.866Z,68.01
2022-12-17T19:37:50.104Z,68.02
2022-12-17T19:40:16.698Z,67.91
2022-12-17T19:42:43.347Z,67.12
2022-12-17T19:45:10.338Z,66.96
2022-12-17T19:47:36.889Z,67.25
2022-12-17T19:50:03.777Z,66.34
2022-12-17T19:52:30.394Z,67.18
2022-12-17T19:54:56.956Z,66.66
2022-12-17T19:57:26.419Z,67.53
2022-12-17T19:59:52.956Z,66.39
2022-12-17T20:02:20.454Z,66.82
2022-12-17T20:04:51.921Z,66.33
2022-12-17T20:07:18.525Z,66.85
2022-12-17T20:09:45.190Z,66.71
2022-12-17T20:12:11.955Z,66.39
2022-12-17T20:14:38.593Z,66.43
2022-12-17T20:17:05.445Z,67.01
2022-12-17T20:22:07.603Z,67.86
2022-12-17T20:24:37.444Z,67.32
2022-12-17T20:27:04.396Z,67.74
2022-12-17T20:29:30.980Z,67.24
2022-12-17T20:31:57.685Z,67.25
2022-12-17T20:34:25.228Z,66.86
2022-12-17T20:36:53.210Z,67.10
2022-12-17T20:39:25.869Z,67.91
2022-12-17T20:41:53.510Z,68.51
2022-12-17T20:44:20.091Z,68.79
2022-12-17T20:46:46.608Z,68.67
2022-12-17T20:49:14.686Z,68.94
2022-12-17T20:51:41.581Z,68.78
2022-12-17T20:54:08.987Z,69.45
2022-12-17T20:56:36.212Z,69.27
2022-12-17T20:59:06.460Z,69.90
2022-12-17T21:01:35.751Z,68.95
2022-12-17T21:04:04.103Z,69.01
2022-12-17T21:06:36.533Z,69.30
2022-12-17T21:09:04.639Z,69.83
2022-12-17T21:11:33.107Z,70.09
2022-12-17T21:14:05.542Z,70.61
2022-12-17T21:16:32.660Z,70.30
2022-12-17T21:19:00.535Z,70.62
2022-12-17T21:21:30.410Z,71.42
2022-12-17T21:23:58.163Z,70.32
2022-12-17T21:26:26.453Z,69.90
2022-12-17T21:28:59.175Z,69.89
2022-12-17T21:31:32.224Z,71.04
2022-12-17T21:34:01.895Z,69.73
2022-12-17T21:36:30.957Z,69.18
2022-12-17T21:38:58.848Z,69.12
2022-12-17T21:41:31.330Z,69.64
2022-12-17T21:44:03.903Z,68.87
2022-12-17T21:46:31.891Z,69.29
2022-12-17T21:49:00.186Z,68.98
2022-12-17T21:51:37.253Z,69.63
2022-12-17T21:54:08.345Z,69.12
2022-12-17T21:56:38.660Z,69.82
2022-12-17T21:59:05.221Z,70.64
2022-12-17T22:02:03.144Z,70.90
2022-12-17T22:05:01.032Z,71.64
2022-12-17T22:07:52.212Z,71.47
2022-12-17T22:10:42.413Z,71.95
2022-12-17T22:13:31.350Z,71.71
2022-12-17T22:15:57.976Z,71.65
2022-12-17T22:18:24.722Z,71.40
2022-12-17T22:20:58.897Z,71.51
2022-12-17T22:23:25.836Z,72.35
2022-12-17T22:25:52.951Z,71.42
2022-12-17T22:28:21.073Z,70.73
2022-12-17T22:31:06.776Z,71.08
2022-12-17T22:33:44.762Z,71.44
2022-12-17T22:38:03.841Z,71.27
2022-12-17T22:43:58.555Z,71.96
2022-12-17T22:44:29.476Z,71.69
2022-12-17T22:45:10.966Z,71.83
2022-12-17T22:47:38.680Z,72.02
2022-12-17T22:50:05.885Z,72.48
2022-12-17T22:55:08.656Z,70.63
2022-12-17T22:57:38.200Z,70.25
2022-12-17T23:00:15.240Z,70.27
2022-12-17T23:02:41.868Z,69.49
2022-12-17T23:05:09.052Z,69.42
2022-12-17T23:08:06.752Z,69.54
2022-12-17T23:10:53.762Z,69.15
2022-12-17T23:13:20.329Z,68.25
2022-12-17T23:15:46.929Z,68.32
2022-12-17T23:18:13.533Z,68.13
2022-12-17T23:21:28.388Z,67.66
2022-12-17T23:23:56.490Z,67.44
2022-12-17T23:26:28.450Z,67.47
2022-12-17T23:29:01.807Z,67.45
2022-12-17T23:31:32.263Z,66.82
2022-12-17T23:33:58.863Z,66.52
2022-12-17T23:39:00.806Z,66.15
2022-12-17T23:41:32.802Z,65.80
2022-12-17T23:44:09.314Z,65.89
2022-12-17T23:46:35.926Z,65.57
2022-12-17T23:49:11.658Z,65.50
